Time;durP1;ratioP1;P1;durP2;ratioP2;P2;SDS_P1;SDS_P2;PMS_P1;PMS_P2;Temp;Humidity;BMP_temperature;BMP_pressure;BME280_temperature;BME280_humidity;BME280_pressure;Samples;Min_cycle;Max_cycle;Signal;HPM_P1;HPM_P2
2022/09/16 00:01:41;;;;;;;3.25;1.27;;;22.70;66.80;;;;;;6150789;28;20039;-76
2022/09/16 00:04:41;;;;;;;3.97;1.20;;;22.60;66.80;;;;;;6150470;28;20043;-76
2022/09/16 00:07:42;;;;;;;1.58;1.10;;;22.60;66.90;;;;;;6150022;28;20492;-76
2022/09/16 00:10:43;;;;;;;1.52;1.15;;;22.60;66.90;;;;;;6150640;28;20147;-78
2022/09/16 00:13:45;;;;;;;3.80;1.17;;;22.60;66.90;;;;;;6153527;28;20035;-77
2022/09/16 00:16:46;;;;;;;4.43;1.00;;;22.50;66.90;;;;;;6154507;28;20041;-77
2022/09/16 00:19:48;;;;;;;2.60;1.02;;;22.50;66.90;;;;;;6136506;28;20039;-77
2022/09/16 00:22:49;;;;;;;2.05;1.20;;;22.50;67.00;;;;;;6173774;28;20698;-77
2022/09/16 00:25:51;;;;;;;1.63;0.95;;;22.60;67.10;;;;;;6175294;28;20030;-75
2022/09/16 00:28:52;;;;;;;1.63;1.20;;;22.60;67.00;;;;;;6169792;28;20456;-75
2022/09/16 00:31:53;;;;;;;2.35;1.15;;;22.50;66.90;;;;;;6157005;28;20054;-75
2022/09/16 00:34:54;;;;;;;2.97;1.35;;;22.60;66.80;;;;;;6154686;28;20031;-75
2022/09/16 00:37:56;;;;;;;1.40;1.27;;;22.60;66.70;;;;;;6155181;28;20039;-75
2022/09/16 00:40:56;;;;;;;1.50;1.30;;;22.60;66.70;;;;;;6155329;28;20118;-76
2022/09/16 00:44:04;;;;;;;1.92;1.30;;;22.60;66.80;;;;;;6154606;28;20039;-76
2022/09/16 00:47:06;;;;;;;4.35;1.52;;;22.60;66.80;;;;;;6152726;28;20062;-75
2022/09/16 00:50:19;;;;;;;2.38;1.35;;;22.60;66.80;;;;;;6154926;28;20043;-75
2022/09/16 00:53:25;;;;;;;1.73;1.20;;;22.50;66.60;;;;;;6166933;28;20090;-75
2022/09/16 00:56:28;;;;;;;2.47;1.73;;;22.60;66.80;;;;;;6177739;28;20034;-77
2022/09/16 00:59:33;;;;;;;1.50;1.20;;;22.60;66.90;;;;;;6177029;28;20042;-75
2022/09/16 01:02:34;;;;;;;3.50;1.10;;;22.50;66.80;;;;;;6147429;28;20768;-74
2022/09/16 01:05:36;;;;;;;2.60;1.13;;;22.60;66.80;;;;;;6153034;28;20136;-77
2022/09/16 01:08:37;;;;;;;3.28;1.10;;;22.50;66.60;;;;;;6136078;28;20192;-77
2022/09/16 01:11:38;;;;;;;3.97;1.20;;;22.50;66.60;;;;;;6153809;28;20472;-75
2022/09/16 01:14:54;;;;;;;5.30;1.13;;;22.60;66.60;;;;;;6167791;28;20048;-75
2022/09/16 01:18:15;;;;;;;3.88;1.00;;;22.60;66.50;;;;;;6173239;28;20051;-75
2022/09/16 01:21:37;;;;;;;3.28;1.02;;;22.60;66.50;;;;;;6143213;28;20484;-75
2022/09/16 01:25:06;;;;;;;1.67;1.10;;;22.70;66.60;;;;;;6156012;28;20449;-76
2022/09/16 01:28:39;;;;;;;2.65;1.20;;;22.70;66.50;;;;;;6154726;28;20043;-75
2022/09/16 01:31:50;;;;;;;1.83;1.33;;;22.70;66.70;;;;;;6146494;28;20043;-76
2022/09/16 01:35:02;;;;;;;1.35;1.13;;;22.60;66.70;;;;;;6166720;28;20456;-76
2022/09/16 01:38:15;;;;;;;3.08;1.20;;;22.60;66.80;;;;;;6153111;28;20083;-76
2022/09/16 01:41:29;;;;;;;2.53;1.23;;;22.60;66.90;;;;;;6166313;28;20045;-75
2022/09/16 01:45:04;;;;;;;5.90;0.98;;;22.60;66.90;;;;;;6171927;28;20060;-76
2022/09/16 01:48:10;;;;;;;4.88;1.40;;;22.60;66.90;;;;;;6144260;28;20440;-76
2022/09/16 01:51:34;;;;;;;2.97;1.13;;;22.60;66.70;;;;;;6148806;28;20047;-76
2022/09/16 01:55:02;;;;;;;1.70;0.90;;;22.60;66.70;;;;;;6160778;28;20042;-76
2022/09/16 01:58:17;;;;;;;2.25;1.02;;;22.70;66.60;;;;;;6171244;28;20047;-76
2022/09/16 02:01:25;;;;;;;4.68;0.98;;;22.70;66.40;;;;;;6156210;28;20051;-76
2022/09/16 02:04:31;;;;;;;1.25;0.80;;;22.70;66.10;;;;;;6147849;28;20039;-76
2022/09/16 02:07:37;;;;;;;1.40;0.93;;;22.80;66.00;;;;;;6146945;28;20071;-75
2022/09/16 02:10:43;;;;;;;4.53;0.98;;;22.80;65.70;;;;;;6167167;28;20072;-75
2022/09/16 02:14:08;;;;;;;2.33;1.05;;;22.90;65.70;;;;;;6176143;28;20038;-76
2022/09/16 02:17:13;;;;;;;1.48;0.80;;;22.80;65.60;;;;;;6145198;28;20388;-76
2022/09/16 02:20:19;;;;;;;2.05;1.05;;;22.80;65.60;;;;;;6148898;28;20495;-76
2022/09/16 02:23:26;;;;;;;1.10;1.00;;;22.80;65.60;;;;;;6144935;28;20039;-75
2022/09/16 02:26:33;;;;;;;3.40;0.80;;;22.80;65.70;;;;;;6148913;28;20042;-76
2022/09/16 02:29:45;;;;;;;2.53;1.47;;;22.80;65.80;;;;;;6149426;28;20035;-76
2022/09/16 02:32:50;;;;;;;1.65;1.23;;;22.80;66.00;;;;;;6149032;28;20042;-75
2022/09/16 02:35:53;;;;;;;3.92;1.55;;;22.80;66.30;;;;;;6149082;28;20042;-76
2022/09/16 02:39:01;;;;;;;1.85;1.35;;;22.80;66.40;;;;;;6130441;28;20384;-75
2022/09/16 02:42:02;;;;;;;;;;;22.80;66.70;;;;;;6149690;28;20042;-75
2022/09/16 02:45:04;;;;;;;2.08;1.20;;;22.70;66.80;;;;;;6148839;28;19925;-76
2022/09/16 02:48:31;;;;;;;2.55;1.45;;;22.70;66.90;;;;;;6148850;28;20047;-76
2022/09/16 02:51:48;;;;;;;4.72;2.10;;;22.60;67.50;;;;;;6154937;28;20050;-76
2022/09/16 02:55:12;;;;;;;3.85;1.92;;;22.50;68.00;;;;;;6159134;28;20396;-77
2022/09/16 02:58:13;;;;;;;4.80;1.80;;;22.40;68.30;;;;;;6152262;28;20047;-75
2022/09/16 03:01:16;;;;;;;5.25;1.80;;;22.30;68.60;;;;;;6149634;28;20046;-75
2022/09/16 03:04:19;;;;;;;3.47;1.95;;;22.30;69.00;;;;;;6147128;28;20073;-75
2022/09/16 03:07:19;;;;;;;3.60;1.33;;;22.20;69.10;;;;;;6146372;28;20038;-75
2022/09/16 03:10:26;;;;;;;5.85;1.67;;;22.10;69.30;;;;;;6143420;28;20464;-75
2022/09/16 03:13:36;;;;;;;2.95;1.52;;;22.00;69.80;;;;;;6145340;28;20617;-76
2022/09/16 03:16:51;;;;;;;2.90;1.50;;;22.00;70.20;;;;;;6147306;28;20035;-75
2022/09/16 03:20:17;;;;;;;3.50;1.45;;;21.90;70.40;;;;;;6138568;28;20536;-76
2022/09/16 03:24:09;;;;;;;2.67;1.30;;;21.80;70.90;;;;;;6145571;28;20499;-76
2022/09/16 03:27:19;;;;;;;1.67;1.35;;;21.70;71.00;;;;;;6056746;29;20033;-78
2022/09/16 03:30:20;;;;;;;3.78;1.67;;;21.60;71.20;;;;;;6070888;29;20041;-78
2022/09/16 03:33:40;;;;;;;2.00;1.30;;;21.60;71.40;;;;;;6071584;29;20063;-77
2022/09/16 03:36:51;;;;;;;3.30;1.30;;;21.50;71.70;;;;;;6049796;29;20032;-77
2022/09/16 03:39:56;;;;;;;1.00;0.90;;;21.50;71.90;;;;;;6069846;29;20036;-77
2022/09/16 03:42:57;;;;;;;3.83;1.10;;;21.60;71.90;;;;;;6065642;29;20033;-77
2022/09/16 03:45:58;;;;;;;1.27;0.80;;;21.50;71.70;;;;;;6051013;29;20043;-77
2022/09/16 03:48:59;;;;;;;2.72;0.80;;;21.50;71.90;;;;;;6071682;29;20041;-77
2022/09/16 03:52:00;;;;;;;0.75;0.73;;;21.40;71.90;;;;;;6072206;29;20108;-77
2022/09/16 03:55:06;;;;;;;2.50;0.90;;;21.40;72.10;;;;;;6072077;29;20048;-78
2022/09/16 03:58:07;;;;;;;4.15;0.88;;;21.30;72.10;;;;;;6015465;29;20037;-76
2022/09/16 04:01:09;;;;;;;1.38;0.80;;;21.30;72.10;;;;;;6059639;28;20072;-76
2022/09/16 04:04:11;;;;;;;2.85;1.00;;;21.30;72.20;;;;;;6147404;28;20400;-76
2022/09/16 04:07:12;;;;;;;3.47;0.93;;;21.40;72.20;;;;;;6144783;28;20035;-75
2022/09/16 04:10:12;;;;;;;3.33;1.00;;;21.40;72.20;;;;;;6147200;28;20613;-76
2022/09/16 04:13:14;;;;;;;1.70;1.10;;;21.50;72.20;;;;;;6145094;28;20097;-76
2022/09/16 04:16:20;;;;;;;1.45;0.93;;;21.50;72.10;;;;;;6145853;28;20054;-76
2022/09/16 04:19:20;;;;;;;0.80;0.80;;;21.50;72.10;;;;;;6146186;28;20046;-78
2022/09/16 04:22:21;;;;;;;3.15;0.90;;;21.60;72.10;;;;;;6147283;28;20031;-78
2022/09/16 04:25:23;;;;;;;2.10;0.80;;;21.60;72.10;;;;;;6146740;28;20031;-76
2022/09/16 04:28:24;;;;;;;3.45;0.88;;;21.60;72.00;;;;;;6145307;28;20051;-76
2022/09/16 04:31:25;;;;;;;3.65;0.75;;;21.70;72.00;;;;;;6144586;28;20460;-76
2022/09/16 04:34:26;;;;;;;0.85;0.70;;;21.70;71.90;;;;;;6137265;28;20031;-75
2022/09/16 04:37:30;;;;;;;0.50;0.50;;;21.70;71.80;;;;;;6156213;28;20476;-77
2022/09/16 04:40:31;;;;;;;1.85;0.90;;;21.70;71.60;;;;;;6145722;28;20106;-78
2022/09/16 04:43:32;;;;;;;2.85;0.90;;;21.70;71.40;;;;;;6147725;28;20035;-77
2022/09/16 04:46:32;;;;;;;0.88;0.60;;;21.70;71.40;;;;;;6159954;28;20475;-76
2022/09/16 04:49:35;;;;;;;0.70;0.63;;;21.70;71.40;;;;;;6147091;28;20043;-76
2022/09/16 04:52:36;;;;;;;0.80;0.70;;;21.70;71.40;;;;;;6147143;28;20039;-76
2022/09/16 04:55:37;;;;;;;2.33;0.73;;;21.70;71.40;;;;;;6151418;28;20408;-77
2022/09/16 04:58:37;;;;;;;2.03;0.70;;;21.70;71.30;;;;;;6178378;28;20043;-78
2022/09/16 05:01:39;;;;;;;0.65;0.65;;;21.70;71.30;;;;;;6157060;28;20039;-75
2022/09/16 05:04:40;;;;;;;1.67;0.70;;;21.70;71.30;;;;;;6151407;28;20393;-77
2022/09/16 05:07:40;;;;;;;1.33;1.05;;;21.80;71.40;;;;;;6151986;28;20051;-77
2022/09/16 05:10:41;;;;;;;3.60;0.90;;;21.80;71.20;;;;;;6150965;28;20130;-77
2022/09/16 05:13:42;;;;;;;0.73;0.63;;;21.80;72.00;;;;;;6150751;28;20039;-77
2022/09/16 05:16:44;;;;;;;3.85;0.68;;;21.80;71.20;;;;;;6151863;28;20054;-77
2022/09/16 05:19:45;;;;;;;0.73;0.65;;;21.80;71.00;;;;;;6151764;28;20361;-77
2022/09/16 05:22:49;;;;;;;1.17;0.80;;;21.80;71.00;;;;;;6148560;28;20050;-77
2022/09/16 05:25:50;;;;;;;2.55;0.65;;;21.90;70.90;;;;;;6150002;28;20046;-77
2022/09/16 05:28:52;;;;;;;1.75;0.75;;;21.90;70.90;;;;;;6149677;28;20059;-77
2022/09/16 05:31:53;;;;;;;1.42;0.90;;;21.90;70.80;;;;;;6153391;28;20049;-77
2022/09/16 05:34:54;;;;;;;2.03;0.90;;;21.90;70.70;;;;;;6149272;28;20035;-77
2022/09/16 05:37:54;;;;;;;2.58;0.77;;;21.90;70.60;;;;;;6168074;28;20042;-77
2022/09/16 05:40:59;;;;;;;1.20;0.77;;;22.00;71.40;;;;;;6134447;28;20461;-77
2022/09/16 05:44:01;;;;;;;0.82;0.68;;;22.00;70.40;;;;;;6147491;28;20043;-77
2022/09/16 05:47:02;;;;;;;2.78;0.70;;;22.00;70.20;;;;;;6150228;28;20412;-78
2022/09/16 05:50:03;;;;;;;3.25;1.75;;;22.00;70.20;;;;;;6151197;28;20442;-77
2022/09/16 05:53:04;;;;;;;7.07;1.30;;;22.10;70.20;;;;;;6147744;28;20042;-77
2022/09/16 05:56:07;;;;;;;1.65;0.98;;;22.00;70.10;;;;;;6140723;28;20365;-77
2022/09/16 05:59:11;;;;;;;1.88;1.00;;;22.10;70.10;;;;;;6150711;28;20046;-76
2022/09/16 06:02:12;;;;;;;6.20;1.35;;;22.10;70.10;;;;;;6133496;28;20035;-76
2022/09/16 06:05:12;;;;;;;4.68;1.50;;;22.10;70.00;;;;;;6126129;28;20046;-76
2022/09/16 06:08:13;;;;;;;0.82;0.80;;;22.10;70.00;;;;;;6151374;28;20400;-76
2022/09/16 06:11:14;;;;;;;2.55;0.90;;;22.10;69.90;;;;;;6151474;28;20050;-77
2022/09/16 06:14:17;;;;;;;2.28;1.13;;;22.10;70.00;;;;;;6149428;28;20039;-77
2022/09/16 06:17:18;;;;;;;2.53;1.05;;;22.10;70.00;;;;;;6150069;28;20047;-77
2022/09/16 06:20:19;;;;;;;1.95;1.10;;;22.10;69.90;;;;;;6148397;28;20050;-76
2022/09/16 06:23:21;;;;;;;1.10;1.00;;;22.10;69.70;;;;;;6148280;28;20050;-77
2022/09/16 06:26:25;;;;;;;2.00;1.40;;;22.10;69.60;;;;;;6131807;28;20047;-77
2022/09/16 06:29:26;;;;;;;6.15;1.70;;;22.10;69.30;;;;;;6157276;28;20075;-78
2022/09/16 06:32:30;;;;;;;4.28;1.58;;;22.20;68.80;;;;;;6148283;28;20043;-77
2022/09/16 06:35:33;;;;;;;2.90;1.52;;;22.20;68.50;;;;;;6150756;28;20126;-77
2022/09/16 06:38:35;;;;;;;1.90;1.60;;;22.20;68.20;;;;;;6151551;28;20043;-76
2022/09/16 06:41:35;;;;;;;5.90;2.00;;;22.20;67.80;;;;;;6152267;28;20448;-77
2022/09/16 06:44:36;;;;;;;4.55;1.80;;;22.20;67.30;;;;;;6151100;28;20039;-77
2022/09/16 06:47:37;;;;;;;4.43;1.83;;;22.20;67.00;;;;;;6150981;28;20117;-76
2022/09/16 06:50:38;;;;;;;4.93;1.63;;;22.20;66.60;;;;;;6151735;28;20090;-77
2022/09/16 06:53:39;;;;;;;2.22;1.50;;;22.30;66.40;;;;;;6167144;28;20050;-77
2022/09/16 06:56:40;;;;;;;2.35;1.30;;;22.30;66.30;;;;;;6150600;28;20036;-77
2022/09/16 06:59:41;;;;;;;4.93;1.30;;;22.30;66.40;;;;;;6166032;28;20035;-75
2022/09/16 07:02:42;;;;;;;1.52;1.02;;;22.30;66.50;;;;;;6151487;28;20057;-75
2022/09/16 07:05:43;;;;;;;1.58;1.17;;;22.30;66.20;;;;;;6151085;28;20031;-77
2022/09/16 07:08:46;;;;;;;3.92;1.35;;;22.30;66.00;;;;;;6150353;28;20051;-77
2022/09/16 07:11:46;;;;;;;1.60;1.25;;;22.30;66.20;;;;;;6152710;28;20097;-76
2022/09/16 07:14:47;;;;;;;2.15;1.27;;;22.30;66.00;;;;;;6151187;28;20047;-77
2022/09/16 07:17:55;;;;;;;1.98;1.38;;;22.30;65.80;;;;;;6153924;28;20043;-77
2022/09/16 07:21:09;;;;;;;2.00;1.55;;;22.30;65.60;;;;;;6171828;28;20063;-77
2022/09/16 07:24:13;;;;;;;2.78;1.20;;;22.30;65.70;;;;;;6159002;28;20066;-77
2022/09/16 07:27:14;;;;;;;5.65;1.33;;;22.30;65.40;;;;;;6151186;28;20460;-77
2022/09/16 07:30:15;;;;;;;2.83;1.63;;;22.40;65.60;;;;;;6167378;28;20047;-77
2022/09/16 07:33:16;;;;;;;5.68;1.52;;;22.40;66.00;;;;;;6166621;28;20050;-77
2022/09/16 07:36:20;;;;;;;15.10;1.73;;;22.50;66.30;;;;;;6173056;28;20038;-77
2022/09/16 07:39:21;;;;;;;2.92;1.50;;;22.60;66.40;;;;;;6169654;28;20098;-77
2022/09/16 07:42:22;;;;;;;5.80;1.60;;;22.80;66.40;;;;;;6149140;28;20078;-77
2022/09/16 07:45:23;;;;;;;6.82;1.88;;;22.90;66.00;;;;;;6147906;28;20118;-76
2022/09/16 07:48:24;;;;;;;1.92;1.50;;;23.00;65.10;;;;;;6147487;28;20107;-77
2022/09/16 07:51:27;;;;;;;4.05;1.73;;;23.10;64.50;;;;;;6168038;28;20032;-76
2022/09/16 07:54:28;;;;;;;2.38;1.67;;;23.10;64.40;;;;;;6149135;28;20369;-77
2022/09/16 07:57:29;;;;;;;9.30;1.85;;;23.30;64.50;;;;;;6154483;28;20034;-76
2022/09/16 08:00:31;;;;;;;3.28;1.65;;;23.20;63.20;;;;;;6164279;28;20043;-76
2022/09/16 08:03:33;;;;;;;4.55;2.20;;;23.20;62.50;;;;;;6148955;28;20027;-76
2022/09/16 08:06:37;;;;;;;3.78;1.65;;;23.30;62.70;;;;;;6160762;28;20039;-77
2022/09/16 08:09:38;;;;;;;2.47;1.67;;;23.30;63.10;;;;;;6155281;28;20039;-77
2022/09/16 08:12:39;;;;;;;2.55;1.35;;;23.40;61.90;;;;;;6148655;28;20036;-78
2022/09/16 08:15:40;;;;;;;1.70;1.40;;;23.50;61.40;;;;;;6150764;28;20379;-77
2022/09/16 08:18:42;;;;;;;3.75;1.42;;;23.60;61.00;;;;;;6153295;28;20134;-78
2022/09/16 08:21:43;;;;;;;2.85;1.42;;;23.70;60.70;;;;;;6188902;28;20026;-75
2022/09/16 08:24:44;;;;;;;2.95;1.38;;;23.90;60.90;;;;;;6172155;28;20415;-78
2022/09/16 08:27:44;;;;;;;1.80;1.35;;;24.00;61.00;;;;;;6147880;28;20083;-78
2022/09/16 08:30:46;;;;;;;5.63;1.60;;;24.20;60.90;;;;;;6148498;28;20094;-78
2022/09/16 08:33:48;;;;;;;2.33;1.45;;;24.30;60.80;;;;;;6150137;28;20252;-77
2022/09/16 08:36:48;;;;;;;1.48;1.35;;;24.30;60.70;;;;;;6152929;28;20031;-76
2022/09/16 08:39:50;;;;;;;2.70;1.50;;;24.40;60.70;;;;;;6151148;28;20122;-77
2022/09/16 08:42:57;;;;;;;5.78;1.45;;;24.40;60.30;;;;;;6135594;28;20456;-78
2022/09/16 08:46:13;;;;;;;5.93;1.73;;;24.50;60.00;;;;;;6152388;28;20035;-78
2022/09/16 08:49:31;;;;;;;6.47;2.03;;;24.60;59.80;;;;;;6147197;28;20051;-78
2022/09/16 08:52:36;;;;;;;2.08;1.50;;;24.70;58.80;;;;;;6155565;28;20060;-77
2022/09/16 08:55:41;;;;;;;3.10;1.65;;;24.70;58.20;;;;;;6155201;28;20134;-77
2022/09/16 08:58:48;;;;;;;1.65;1.40;;;24.80;58.40;;;;;;6155062;28;20130;-77
2022/09/16 09:01:58;;;;;;;5.50;1.77;;;24.80;58.20;;;;;;6154954;28;20385;-77
2022/09/16 09:05:02;;;;;;;5.32;1.67;;;24.90;58.10;;;;;;6148596;28;20078;-78
2022/09/16 09:08:18;;;;;;;5.82;1.70;;;25.10;57.50;;;;;;6148731;28;20539;-75
2022/09/16 09:11:19;;;;;;;9.93;2.47;;;25.10;56.40;;;;;;6148689;28;20039;-77
2022/09/16 09:14:26;;;;;;;4.85;1.90;;;25.20;55.30;;;;;;6152532;28;20492;-77
2022/09/16 09:17:39;;;;;;;3.05;1.67;;;25.20;54.30;;;;;;6165620;28;20057;-78
2022/09/16 09:21:05;;;;;;;3.15;1.75;;;25.30;53.30;;;;;;6172289;28;20066;-76
2022/09/16 09:24:44;;;;;;;2.03;1.60;;;25.50;51.90;;;;;;6170722;28;20051;-76
2022/09/16 09:28:00;;;;;;;2.07;1.53;;;25.50;51.00;;;;;;6159814;28;20035;-76
2022/09/16 09:31:34;;;;;;;3.17;1.73;;;25.60;50.50;;;;;;6148188;28;20043;-79
2022/09/16 09:34:59;;;;;;;3.47;1.88;;;25.70;50.30;;;;;;6148593;28;20482;-76
2022/09/16 09:38:24;;;;;;;3.92;1.85;;;25.80;50.20;;;;;;6144173;28;20452;-76
2022/09/16 09:41:42;;;;;;;5.53;1.80;;;25.90;50.00;;;;;;6146106;28;20503;-76
2022/09/16 09:45:03;;;;;;;3.43;1.90;;;25.90;49.60;;;;;;6146242;28;20043;-77
2022/09/16 09:48:22;;;;;;;3.42;1.63;;;25.90;49.70;;;;;;6147283;28;20047;-77
2022/09/16 09:51:36;;;;;;;1.98;1.60;;;25.80;49.80;;;;;;6155894;28;20094;-78
2022/09/16 09:54:40;;;;;;;6.13;2.42;;;25.80;49.40;;;;;;6146536;28;20031;-76
2022/09/16 09:58:05;;;;;;;8.38;2.13;;;25.80;48.90;;;;;;6132384;28;20039;-77
2022/09/16 10:01:07;;;;;;;2.28;1.60;;;25.80;48.60;;;;;;6140391;28;20047;-77
2022/09/16 10:04:14;;;;;;;4.80;1.85;;;25.80;48.50;;;;;;6148234;28;20126;-77
2022/09/16 10:07:18;;;;;;;4.03;2.10;;;25.90;48.30;;;;;;6151836;28;20134;-78
2022/09/16 10:10:22;;;;;;;3.42;2.15;;;26.00;48.20;;;;;;6162647;28;20038;-76
2022/09/16 10:13:24;;;;;;;3.10;1.63;;;26.00;48.00;;;;;;6169916;28;20047;-76
2022/09/16 10:16:36;;;;;;;2.58;1.48;;;26.10;47.90;;;;;;6171828;28;20364;-78
2022/09/16 10:19:54;;;;;;;3.80;1.77;;;26.10;47.70;;;;;;6126950;28;20457;-79
2022/09/16 10:23:09;;;;;;;3.58;1.90;;;26.20;47.70;;;;;;6144045;28;20409;-77
2022/09/16 10:26:27;;;;;;;3.13;1.67;;;26.20;47.70;;;;;;6147162;28;20062;-77
2022/09/16 10:29:28;;;;;;;2.47;1.80;;;26.20;47.60;;;;;;6146776;28;20074;-77
2022/09/16 10:32:30;;;;;;;5.28;1.85;;;26.20;47.80;;;;;;6162175;28;20073;-79
2022/09/16 10:35:34;;;;;;;3.83;1.83;;;26.30;47.10;;;;;;6168854;28;20078;-76
2022/09/16 10:38:53;;;;;;;3.22;1.70;;;26.30;46.70;;;;;;6157018;28;20070;-77
2022/09/16 10:41:54;;;;;;;2.30;1.60;;;26.30;46.30;;;;;;6152164;28;20057;-78
2022/09/16 10:45:02;;;;;;;2.28;1.80;;;26.40;46.10;;;;;;6163381;28;20117;-77
2022/09/16 10:48:13;;;;;;;3.25;1.90;;;26.40;45.80;;;;;;6168886;28;20181;-77
2022/09/16 10:51:28;;;;;;;8.30;1.85;;;26.30;45.30;;;;;;6168701;28;20034;-78
2022/09/16 10:54:30;;;;;;;3.33;1.70;;;26.20;44.70;;;;;;6153722;28;20049;-78
2022/09/16 10:57:33;;;;;;;5.82;1.77;;;26.10;45.00;;;;;;6151644;28;20032;-77
2022/09/16 11:00:56;;;;;;;5.60;1.75;;;26.10;44.80;;;;;;6149099;28;20043;-77
2022/09/16 11:04:23;;;;;;;7.50;1.83;;;26.30;44.40;;;;;;6159285;28;20225;-77
2022/09/16 11:07:45;;;;;;;4.20;1.90;;;26.50;44.00;;;;;;6145984;28;20047;-78
2022/09/16 11:11:06;;;;;;;2.70;1.63;;;26.70;43.90;;;;;;6143181;28;20042;-78
2022/09/16 11:14:36;;;;;;;2.05;1.73;;;27.00;43.40;;;;;;6144792;28;20043;-78
2022/09/16 11:18:22;;;;;;;2.38;1.75;;;27.10;42.70;;;;;;6137310;28;20459;-78
2022/09/16 11:21:40;;;;;;;5.38;1.70;;;27.30;42.60;;;;;;6116119;28;20040;-76
2022/09/16 11:25:15;;;;;;;4.60;1.75;;;27.50;41.90;;;;;;6184017;28;20121;-76
2022/09/16 11:28:57;;;;;;;2.97;1.58;;;27.70;41.20;;;;;;6160649;28;20057;-79
2022/09/16 11:32:26;;;;;;;4.68;1.30;;;27.90;40.80;;;;;;6057052;29;20381;-77
2022/09/16 11:35:55;;;;;;;2.97;1.65;;;28.00;40.20;;;;;;6070910;29;20132;-76
2022/09/16 11:39:30;;;;;;;3.88;1.80;;;28.20;39.50;;;;;;6079704;29;20473;-77
2022/09/16 11:42:45;;;;;;;3.15;1.50;;;28.40;38.90;;;;;;6068599;29;20036;-77
2022/09/16 11:46:06;;;;;;;1.98;1.50;;;28.50;38.10;;;;;;6064690;29;20044;-77
2022/09/16 11:49:35;;;;;;;3.50;1.73;;;28.60;39.00;;;;;;6070082;29;20378;-77
2022/09/16 11:53:00;;;;;;;5.85;2.72;;;28.80;38.50;;;;;;6051463;29;20044;-76
2022/09/16 11:56:37;;;;;;;3.65;1.85;;;29.00;37.90;;;;;;6051232;29;20111;-77
2022/09/16 11:59:49;;;;;;;6.93;1.77;;;29.10;37.40;;;;;;5980794;29;20045;-76
2022/09/16 12:03:11;;;;;;;2.15;1.42;;;29.40;36.70;;;;;;5997641;29;20046;-78
2022/09/16 12:06:20;;;;;;;6.13;2.00;;;29.70;36.10;;;;;;5969798;29;20121;-79
2022/09/16 12:09:47;;;;;;;3.40;1.52;;;30.10;35.00;;;;;;6038705;29;20052;-77
2022/09/16 12:13:03;;;;;;;2.65;1.15;;;30.10;34.40;;;;;;6034475;29;20037;-77
2022/09/16 12:16:12;;;;;;;5.85;1.52;;;30.20;34.30;;;;;;6043819;29;20049;-77
2022/09/16 12:19:22;;;;;;;7.35;1.83;;;30.70;33.80;;;;;;6038108;29;20033;-77
2022/09/16 12:22:26;;;;;;;3.17;1.42;;;31.30;32.90;;;;;;6045714;29;20085;-78
2022/09/16 12:25:59;;;;;;;2.60;1.40;;;31.80;32.10;;;;;;6053958;29;20041;-78
2022/09/16 12:29:14;;;;;;;1.88;1.33;;;32.40;31.70;;;;;;6036904;29;20455;-77
2022/09/16 12:32:34;;;;;;;2.88;1.55;;;33.10;30.60;;;;;;6036998;29;20052;-78
2022/09/16 12:36:15;;;;;;;3.15;1.50;;;33.90;29.90;;;;;;6097842;28;20089;-77
2022/09/16 12:39:17;;;;;;;2.75;1.35;;;34.60;28.90;;;;;;6147758;28;20070;-77
2022/09/16 12:42:40;;;;;;;4.30;1.50;;;35.00;27.80;;;;;;6148854;28;20046;-77
2022/09/16 12:46:00;;;;;;;3.38;1.67;;;35.50;27.80;;;;;;6146841;28;20059;-76
2022/09/16 12:49:31;;;;;;;4.18;1.75;;;35.90;27.20;;;;;;6147835;28;20050;-77
2022/09/16 12:52:57;;;;;;;2.92;1.70;;;36.40;26.70;;;;;;6153903;28;20062;-79
2022/09/16 12:55:58;;;;;;;3.58;1.48;;;37.00;26.30;;;;;;6157591;28;20050;-78
2022/09/16 12:59:23;;;;;;;1.83;1.40;;;37.50;25.70;;;;;;6145469;28;20061;-78
2022/09/16 13:02:38;;;;;;;1.73;1.33;;;37.70;25.20;;;;;;6166432;28;20108;-77
2022/09/16 13:05:44;;;;;;;3.65;1.30;;;37.80;24.60;;;;;;6169582;28;20097;-79
2022/09/16 13:08:45;;;;;;;2.13;1.63;;;37.90;24.30;;;;;;6157726;28;20062;-79
2022/09/16 13:12:21;;;;;;;1.42;1.30;;;37.90;24.40;;;;;;6158097;28;20058;-78
2022/09/16 13:15:29;;;;;;;2.50;1.52;;;38.00;24.30;;;;;;6168085;28;20042;-78
2022/09/16 13:18:44;;;;;;;2.40;1.20;;;38.30;24.40;;;;;;6144135;28;20377;-78
2022/09/16 13:21:46;;;;;;;3.78;1.55;;;38.60;23.70;;;;;;6150375;28;20114;-77
2022/09/16 13:25:13;;;;;;;4.68;1.48;;;38.60;23.80;;;;;;6150651;28;20098;-77
2022/09/16 13:28:44;;;;;;;2.05;1.40;;;37.90;23.30;;;;;;6137036;28;20098;-77
2022/09/16 13:31:47;;;;;;;1.63;1.40;;;36.60;24.50;;;;;;6067806;29;20126;-77
2022/09/16 13:35:00;;;;;;;2.40;1.45;;;35.50;25.30;;;;;;6083081;29;20179;-77
2022/09/16 13:38:13;;;;;;;3.15;1.63;;;34.50;26.10;;;;;;6098671;29;20044;-77
2022/09/16 13:41:27;;;;;;;5.63;1.58;;;33.50;27.10;;;;;;6096008;29;20044;-79
2022/09/16 13:44:38;;;;;;;5.82;1.40;;;32.60;28.10;;;;;;6096489;29;20059;-77
2022/09/16 13:47:48;;;;;;;4.30;1.45;;;31.90;29.00;;;;;;6098798;29;20036;-78
2022/09/16 13:50:59;;;;;;;3.53;1.30;;;31.30;29.70;;;;;;6097907;29;20044;-76
2022/09/16 13:54:03;;;;;;;4.32;1.90;;;31.00;30.50;;;;;;6099726;29;20087;-78
2022/09/16 13:57:47;;;;;;;4.63;1.73;;;30.50;31.40;;;;;;6090126;29;20036;-78
2022/09/16 14:01:16;;;;;;;4.70;1.95;;;29.90;32.40;;;;;;6081119;29;20051;-77
2022/09/16 14:04:17;;;;;;;9.10;1.90;;;29.40;33.50;;;;;;6118727;29;20056;-78
2022/09/16 14:07:53;;;;;;;2.67;1.60;;;29.10;34.30;;;;;;6117922;28;20055;-76
2022/09/16 14:11:19;;;;;;;3.80;1.70;;;28.80;35.10;;;;;;6155591;28;20047;-78
2022/09/16 14:14:24;;;;;;;3.67;1.67;;;28.40;36.10;;;;;;6149935;28;20034;-77
2022/09/16 14:17:30;;;;;;;7.75;2.15;;;28.00;36.90;;;;;;6150975;28;20350;-78
2022/09/16 14:20:33;;;;;;;3.90;2.30;;;27.60;37.90;;;;;;6165507;28;20078;-78
2022/09/16 14:23:34;;;;;;;2.22;1.73;;;27.30;38.50;;;;;;6177875;28;20158;-78
2022/09/16 14:26:35;;;;;;;5.32;2.42;;;27.10;38.80;;;;;;6170614;28;20043;-77
2022/09/16 14:29:37;;;;;;;5.40;1.98;;;27.00;39.00;;;;;;6171358;28;20039;-77
2022/09/16 14:32:39;;;;;;;4.88;1.90;;;26.90;39.10;;;;;;6159765;28;20043;-77
2022/09/16 14:35:43;;;;;;;3.63;1.80;;;26.90;39.00;;;;;;6144112;28;20130;-77
2022/09/16 14:38:53;;;;;;;2.80;1.52;;;26.80;39.00;;;;;;6144877;28;20035;-77
2022/09/16 14:42:02;;;;;;;7.50;2.20;;;26.70;39.10;;;;;;6141374;28;20057;-77
2022/09/16 14:45:04;;;;;;;3.25;1.77;;;26.50;39.10;;;;;;6177290;28;20035;-77
2022/09/16 14:48:08;;;;;;;2.13;1.63;;;26.50;39.00;;;;;;6189113;28;20126;-77
2022/09/16 14:51:22;;;;;;;3.60;1.90;;;26.50;38.90;;;;;;6166945;28;20480;-77
2022/09/16 14:54:25;;;;;;;4.18;1.60;;;26.40;38.80;;;;;;6171212;28;20039;-77
2022/09/16 14:57:29;;;;;;;3.63;1.88;;;26.40;39.00;;;;;;6173930;28;20098;-77
2022/09/16 15:00:46;;;;;;;2.55;1.83;;;26.30;38.90;;;;;;6135942;28;20042;-77
2022/09/16 15:04:01;;;;;;;11.85;2.13;;;26.20;38.90;;;;;;6148473;28;20062;-76
2022/09/16 15:07:21;;;;;;;4.80;1.85;;;26.20;38.90;;;;;;6160158;28;20053;-77
2022/09/16 15:10:28;;;;;;;2.58;1.52;;;26.30;38.80;;;;;;6158888;28;20449;-78
2022/09/16 15:13:36;;;;;;;5.70;1.80;;;26.30;38.60;;;;;;6148965;28;20039;-76
2022/09/16 15:17:11;;;;;;;3.00;1.52;;;26.40;38.30;;;;;;6160271;28;20055;-78
2022/09/16 15:20:27;;;;;;;3.45;1.40;;;26.50;38.30;;;;;;6150680;28;20035;-78
2022/09/16 15:23:28;;;;;;;3.95;1.80;;;26.50;38.10;;;;;;6147658;28;20777;-78
2022/09/16 15:26:40;;;;;;;5.03;2.10;;;26.60;38.00;;;;;;6146063;28;20055;-78
2022/09/16 15:29:52;;;;;;;4.53;2.10;;;26.60;37.90;;;;;;6130252;28;20039;-78
2022/09/16 15:32:53;;;;;;;3.17;1.80;;;26.60;38.00;;;;;;6145264;28;20043;-79
2022/09/16 15:35:54;;;;;;;2.55;1.70;;;26.60;37.90;;;;;;6148802;28;20086;-77
2022/09/16 15:38:59;;;;;;;3.03;1.80;;;26.70;37.80;;;;;;6146621;28;20531;-78
2022/09/16 15:42:15;;;;;;;1.85;1.55;;;26.70;37.90;;;;;;6155094;28;20062;-78
2022/09/16 15:45:21;;;;;;;8.05;1.55;;;26.60;37.80;;;;;;6168097;28;20431;-76
2022/09/16 15:48:23;;;;;;;3.00;1.63;;;26.50;37.90;;;;;;6149396;28;20043;-77
2022/09/16 15:51:34;;;;;;;2.33;1.83;;;26.50;38.20;;;;;;6167351;28;20035;-77
2022/09/16 15:54:46;;;;;;;3.90;1.60;;;26.40;38.20;;;;;;6168633;28;20368;-78
2022/09/16 15:57:47;;;;;;;4.75;2.00;;;26.20;38.40;;;;;;6183941;28;20472;-79
2022/09/16 16:01:15;;;;;;;2.22;1.80;;;26.10;38.80;;;;;;6164587;28;20050;-76
2022/09/16 16:04:31;;;;;;;5.32;2.10;;;25.80;39.20;;;;;;6170806;28;20042;-77
2022/09/16 16:07:48;;;;;;;5.32;1.88;;;25.70;39.60;;;;;;6168280;28;20065;-78
2022/09/16 16:11:06;;;;;;;4.40;1.75;;;25.60;39.90;;;;;;6161166;28;20027;-77
2022/09/16 16:14:07;;;;;;;2.55;1.60;;;25.50;40.00;;;;;;6166038;28;20045;-76
2022/09/16 16:17:10;;;;;;;2.53;1.60;;;25.50;40.40;;;;;;6153481;28;20058;-77
2022/09/16 16:20:13;;;;;;;2.63;1.88;;;25.50;40.20;;;;;;6139616;28;20077;-77
2022/09/16 16:23:14;;;;;;;2.88;2.03;;;25.40;40.20;;;;;;6140544;28;20027;-76
2022/09/16 16:26:15;;;;;;;3.72;2.05;;;25.30;40.10;;;;;;6147387;28;20027;-77